Tulsa, OK (74171)

1:06 PM CDT on August 29, 2016 (GMT -0500)
APRSWXNET | | Change Station

Elev 775 ft 36.16 °N, 95.99 °W | Updated 30 minutes ago

Mostly Cloudy
Mostly Cloudy
82 °F
Feels Like 88 °F
N
0
Wind Variable Wind from ENE
Gusts 10.0 mph

Today
High -- | Low -- °F
--% Chance of Precip.
Yesterday
High -- | Low -- °F
Precip. -- in
Pressure 30.14 in
Visibility 10.0 miles
Clouds Few 9000 ft
Scattered Clouds 14000 ft
Mostly Cloudy 25000 ft
Heat Index 88 °F
Dew Point 74 °F
Humidity 77%
Rainfall in
Snow Depth Not available.
6:53 AM 7:55 PM
Waning Crescent, 7% visible
SPECI KTUL 291801Z 31009KT 10SM VCTS FEW090 SCT140 BKN250 29/23 A3014 RMK AO2 LTG DSNT SW AND W TS VCT W T02940228
Pressure 30.14 in
Visibility 10.0 miles
Clouds Few 9000 ft
Scattered Clouds 14000 ft
Mostly Cloudy 25000 ft
Heat Index 88 °F
Dew Point 74 °F
Humidity 77%
Rainfall in
Snow Depth Not available.
6:53 AM 7:55 PM
Waning Crescent, 7% visible
SPECI KTUL 291801Z 31009KT 10SM VCTS FEW090 SCT140 BKN250 29/23 A3014 RMK AO2 LTG DSNT SW AND W TS VCT W T02940228

10-Day Weather Forecast

Almanac

Astronomy

Aug. 29, 2016 Rise Set
Actual Time
Civil Twilight
Nautical Twilight
Astronomical Twilight
Moon
Length of Visible Light
Length of Day
Tomorrow will be .
, % of the Moon is Illuminated

Today's Extremes

State Highs State Lows

Community

WunderPhotos

Upload Photos

1,935,685 photos uploaded!

WunderBlog® & News

Nearby

Air Quality

  Air Quality AQ Index Pollutant
Not available.

Snow Depth

Station Depth Elevation

Earthquake Activity

City Distance Mag. Time & Date
Minimum magnitude displayed is 2.5.

Coastal Water Temperatures

Place Temperature

Stations

Nearby Weather Stations

Station Location Temp. Windchill Dew Point Humidity Wind Precip. Elev Updated Type
                   

Watches & Warnings

There are currently no watches in effect.